Time;durP1;ratioP1;P1;durP2;ratioP2;P2;SDS_P1;SDS_P2;PMS_P1;PMS_P2;Temp;Humidity;BMP_temperature;BMP_pressure;BME280_temperature;BME280_humidity;BME280_pressure;Samples;Min_cycle;Max_cycle;Signal;HPM_P1;HPM_P2
2022/04/23 00:01:35;;;;;;;13.57;11.25;;;;;;;11.72;68.28;100522.28;5069056;28;20419;-52
2022/04/23 00:04:00;;;;;;;14.93;11.93;;;;;;;11.66;68.61;100522.16;5054745;28;20028;-51
2022/04/23 00:06:25;;;;;;;15.18;12.13;;;;;;;11.62;69.05;100528.09;5057652;28;20025;-52
2022/04/23 00:08:51;;;;;;;15.73;11.60;;;;;;;11.60;68.97;100524.63;5057428;28;20036;-52
2022/04/23 00:11:16;;;;;;;20.92;11.73;;;;;;;11.59;69.04;100522.91;5059183;28;20114;-49
2022/04/23 00:13:41;;;;;;;16.55;12.13;;;;;;;11.54;69.49;100532.25;5056226;28;20054;-53
2022/04/23 00:16:07;;;;;;;15.82;13.20;;;;;;;11.49;69.69;100523.56;5056066;28;20029;-50
2022/04/23 00:18:33;;;;;;;19.10;12.32;;;;;;;11.46;69.70;100526.91;5054798;28;20484;-52
2022/04/23 00:20:59;;;;;;;16.55;11.52;;;;;;;11.46;69.92;100518.34;5056564;28;20054;-52
2022/04/23 00:23:25;;;;;;;16.85;12.30;;;;;;;11.45;69.92;100526.91;5054380;28;20066;-49
2022/04/23 00:25:52;;;;;;;14.82;12.15;;;;;;;11.42;70.09;100520.00;5055958;28;20449;-52
2022/04/23 00:28:18;;;;;;;17.13;12.38;;;;;;;11.44;69.93;100525.16;5058108;28;20020;-52
2022/04/23 00:30:47;;;;;;;15.90;12.20;;;;;;;11.45;69.93;100522.63;5054639;28;20041;-52
2022/04/23 00:33:12;;;;;;;17.27;11.90;;;;;;;11.48;70.05;100530.41;5054143;28;20122;-50
2022/04/23 00:35:38;;;;;;;16.23;13.30;;;;;;;11.42;70.22;100522.56;5057342;28;20123;-48
2022/04/23 00:38:05;;;;;;;18.92;13.35;;;;;;;11.41;70.23;100525.13;5055495;28;20435;-52
2022/04/23 00:40:31;;;;;;;16.67;12.82;;;;;;;11.36;70.55;100527.59;5054608;28;20029;-51
2022/04/23 00:42:58;;;;;;;16.00;12.35;;;;;;;11.36;70.48;100526.75;5058847;28;20082;-51
2022/04/23 00:45:27;;;;;;;16.10;13.20;;;;;;;11.36;70.62;100526.75;5055326;28;20147;-51
2022/04/23 00:47:53;;;;;;;16.40;13.65;;;;;;;11.31;70.80;100523.22;5057983;28;20025;-52
2022/04/23 00:50:21;;;;;;;18.15;13.23;;;;;;;11.27;70.97;100520.56;5055418;28;20492;-53
2022/04/23 00:53:02;;;;;;;17.85;13.77;;;;;;;11.31;71.07;100526.66;5059501;28;20447;-50
2022/04/23 00:55:28;;;;;;;18.42;14.75;;;;;;;11.24;71.32;100523.09;5056201;28;20039;-51
2022/04/23 00:57:54;;;;;;;18.98;14.45;;;;;;;11.18;71.51;100528.09;5052585;28;20025;-52
2022/04/23 01:00:21;;;;;;;17.48;14.00;;;;;;;11.16;71.81;100524.66;5052254;28;20083;-51
2022/04/23 01:02:46;;;;;;;18.83;14.20;;;;;;;11.19;71.67;100523.81;5053117;28;20047;-50
2022/04/23 01:05:12;;;;;;;19.40;13.85;;;;;;;11.22;71.53;100524.78;5055666;28;20083;-49
2022/04/23 01:07:42;;;;;;;18.42;14.68;;;;;;;11.20;71.55;100531.56;5055763;28;20055;-52
2022/04/23 01:10:08;;;;;;;18.55;15.02;;;;;;;11.16;72.00;100526.31;5055724;28;20032;-50
2022/04/23 01:12:35;;;;;;;20.73;15.38;;;;;;;11.17;71.94;100533.22;5057784;28;20036;-48
2022/04/23 01:15:09;;;;;;;18.88;15.30;;;;;;;11.12;72.24;100524.53;5051858;28;20032;-47
2022/04/23 01:17:35;;;;;;;19.52;15.07;;;;;;;11.08;72.59;100525.31;5058113;28;20065;-50
2022/04/23 01:20:05;;;;;;;19.15;15.25;;;;;;;11.03;72.83;100530.34;5054231;28;20033;-50
2022/04/23 01:22:31;;;;;;;19.35;15.27;;;;;;;11.01;73.12;100526.88;5051704;28;20055;-51
2022/04/23 01:24:57;;;;;;;18.63;15.48;;;;;;;11.07;72.83;100532.16;5052070;28;20060;-50
2022/04/23 01:27:29;;;;;;;19.88;15.27;;;;;;;11.14;72.42;100522.88;5053708;28;20037;-52
2022/04/23 01:29:56;;;;;;;18.85;15.30;;;;;;;11.14;72.57;100530.59;5053674;28;20040;-49
2022/04/23 01:32:21;;;;;;;19.45;15.35;;;;;;;11.12;72.52;100525.41;5053939;28;20090;-52
2022/04/23 01:34:46;;;;;;;18.27;15.57;;;;;;;11.07;72.79;100529.59;5057010;28;20435;-51
2022/04/23 01:37:13;;;;;;;21.98;17.33;;;;;;;11.05;73.03;100528.69;5054650;28;20020;-49
2022/04/23 01:39:39;;;;;;;21.42;16.50;;;;;;;11.05;73.02;100531.28;5056295;28;20476;-49
2022/04/23 01:42:05;;;;;;;19.83;16.95;;;;;;;11.05;73.33;100528.69;5056087;28;20040;-52
2022/04/23 01:44:30;;;;;;;20.23;16.23;;;;;;;11.02;73.04;100526.91;5057243;28;20028;-52
2022/04/23 01:46:56;;;;;;;21.60;16.58;;;;;;;10.97;73.35;100527.66;5053372;28;20044;-51
2022/04/23 01:49:21;;;;;;;21.25;16.90;;;;;;;10.93;73.85;100525.88;5056193;28;20112;-53
2022/04/23 01:51:46;;;;;;;21.58;17.17;;;;;;;10.90;74.03;100528.38;5054804;28;20037;-48
2022/04/23 01:54:12;;;;;;;26.60;17.65;;;;;;;10.84;74.60;100541.97;5051196;28;20029;-51
2022/04/23 01:56:37;;;;;;;21.63;16.25;;;;;;;10.80;74.34;100531.56;5055402;28;20033;-52
2022/04/23 01:59:02;;;;;;;21.88;17.20;;;;;;;10.76;75.00;100540.94;5055180;28;20033;-52
2022/04/23 02:01:28;;;;;;;21.20;17.10;;;;;;;10.78;74.82;100531.53;5054127;28;20029;-52
2022/04/23 02:03:53;;;;;;;24.73;17.52;;;;;;;10.79;74.92;100525.56;5052884;28;20044;-47
2022/04/23 02:06:18;;;;;;;24.60;18.13;;;;;;;10.81;74.83;100531.63;5054236;28;20043;-53
2022/04/23 02:08:44;;;;;;;23.35;18.45;;;;;;;10.78;74.75;100535.81;5055494;28;20052;-49
2022/04/23 02:11:09;;;;;;;24.02;18.65;;;;;;;10.80;74.96;100544.41;5056719;28;20562;-50
2022/04/23 02:13:35;;;;;;;25.70;19.30;;;;;;;10.71;75.34;100534.81;5055975;28;21013;-52
2022/04/23 02:16:04;;;;;;;25.10;19.63;;;;;;;10.67;75.88;100536.44;5056751;28;20036;-47
2022/04/23 02:18:30;;;;;;;26.30;18.42;;;;;;;10.68;75.64;100538.19;5055690;28;20064;-53
2022/04/23 02:20:56;;;;;;;23.33;18.98;;;;;;;10.67;75.95;100540.72;5057974;28;20515;-51
2022/04/23 02:23:21;;;;;;;23.00;18.67;;;;;;;10.70;75.96;100533.09;5053282;28;20021;-52
2022/04/23 02:25:47;;;;;;;25.27;19.73;;;;;;;10.67;75.76;100539.00;5058067;28;20250;-48
2022/04/23 02:28:12;;;;;;;24.10;19.95;;;;;;;10.60;76.04;100539.72;5057165;28;20080;-52
2022/04/23 02:30:38;;;;;;;23.27;19.70;;;;;;;10.61;75.94;100549.16;5059301;28;20048;-52
2022/04/23 02:33:04;;;;;;;27.45;20.23;;;;;;;10.55;76.35;100538.72;5057476;28;20040;-51
2022/04/23 02:35:30;;;;;;;22.08;18.38;;;;;;;10.59;76.19;100544.81;5057515;28;20023;-50
2022/04/23 02:37:57;;;;;;;26.90;19.35;;;;;;;10.62;76.37;100539.78;5057147;28;20418;-48
2022/04/23 02:40:23;;;;;;;24.08;19.88;;;;;;;10.54;76.58;100541.28;5074179;28;20040;-52
2022/04/23 02:42:50;;;;;;;25.92;19.65;;;;;;;10.55;76.56;100540.44;5058790;28;20037;-50
2022/04/23 02:45:16;;;;;;;27.58;21.90;;;;;;;10.51;77.02;100547.22;5055778;28;20040;-53
2022/04/23 02:47:48;;;;;;;25.20;20.00;;;;;;;10.50;77.22;100539.50;5058340;28;20043;-49
2022/04/23 02:50:15;;;;;;;25.67;19.98;;;;;;;10.48;77.19;100542.00;5055802;28;20496;-52
2022/04/23 02:52:44;;;;;;;25.63;21.40;;;;;;;10.46;77.57;100538.53;5055131;28;20037;-53
2022/04/23 02:55:12;;;;;;;27.08;21.98;;;;;;;10.48;77.45;100542.88;5054855;28;20132;-49
2022/04/23 02:57:41;;;;;;;30.02;21.45;;;;;;;10.43;77.53;100543.59;5058482;28;20093;-52
2022/04/23 03:00:07;;;;;;;29.58;22.38;;;;;;;10.43;77.54;100536.78;5057580;28;20476;-52
2022/04/23 03:02:36;;;;;;;26.60;21.80;;;;;;;10.42;77.40;100535.00;5056743;28;20040;-49
2022/04/23 03:05:05;;;;;;;31.45;22.10;;;;;;;10.39;77.63;100526.38;5059688;28;20489;-50
2022/04/23 03:07:31;;;;;;;26.60;20.90;;;;;;;10.41;77.54;100527.28;5056253;28;20487;-51
2022/04/23 03:09:57;;;;;;;28.95;21.38;;;;;;;10.42;77.87;100519.59;5058331;28;20029;-50
2022/04/23 03:12:22;;;;;;;27.80;22.45;;;;;;;10.39;77.82;100536.66;5057180;28;20032;-51
2022/04/23 03:14:48;;;;;;;27.85;23.10;;;;;;;10.35;78.26;100527.13;5059738;28;20052;-51
2022/04/23 03:17:13;;;;;;;26.92;22.27;;;;;;;10.30;78.38;100521.88;5055667;28;20024;-48
2022/04/23 03:19:39;;;;;;;27.42;22.60;;;;;;;10.32;78.39;100527.06;5060972;28;20048;-51
2022/04/23 03:22:04;;;;;;;30.73;23.17;;;;;;;10.31;78.42;100530.44;5057375;28;21600;-51
2022/04/23 03:24:30;;;;;;;31.27;23.10;;;;;;;10.24;78.92;100523.44;5057164;28;20035;-49
2022/04/23 03:26:55;;;;;;;28.00;22.92;;;;;;;10.24;78.92;100520.88;5055549;28;20029;-47
2022/04/23 03:29:21;;;;;;;27.35;22.05;;;;;;;10.28;78.90;100522.69;5056386;28;20055;-52
2022/04/23 03:31:48;;;;;;;32.78;24.35;;;;;;;10.25;79.26;100520.88;5055857;28;20078;-52
2022/04/23 03:34:14;;;;;;;28.60;22.95;;;;;;;10.23;79.11;100520.00;5056338;28;20044;-49
2022/04/23 03:36:39;;;;;;;30.05;22.88;;;;;;;10.24;79.10;100520.88;5058099;28;20125;-50
2022/04/23 03:39:05;;;;;;;30.63;23.38;;;;;;;10.26;79.17;100520.09;5056594;28;20033;-47
2022/04/23 03:41:30;;;;;;;30.35;23.23;;;;;;;10.26;79.24;100524.34;5055591;28;20033;-51
2022/04/23 03:43:55;;;;;;;29.35;22.88;;;;;;;10.24;79.47;100510.59;5055199;28;20452;-49
2022/04/23 03:46:21;;;;;;;30.50;23.98;;;;;;;10.26;79.37;100509.81;5058251;28;20029;-51
2022/04/23 03:48:46;;;;;;;29.75;24.15;;;;;;;10.23;79.60;100506.25;5058816;28;20024;-51
2022/04/23 03:51:12;;;;;;;30.33;24.48;;;;;;;10.24;80.00;100510.59;5055470;28;20079;-52
2022/04/23 03:53:37;;;;;;;29.70;23.42;;;;;;;10.26;79.46;100514.94;5056125;28;20033;-49
2022/04/23 03:56:03;;;;;;;30.60;23.35;;;;;;;10.31;79.32;100509.88;5056944;28;20027;-50
2022/04/23 03:58:29;;;;;;;28.13;23.38;;;;;;;10.35;79.23;100502.28;5054966;28;22113;-52
2022/04/23 04:00:55;;;;;;;32.20;23.98;;;;;;;10.36;78.96;100509.16;5055437;28;20032;-52
2022/04/23 04:03:20;;;;;;;30.77;24.25;;;;;;;10.35;79.16;100511.72;5054606;28;20036;-52
2022/04/23 04:05:47;;;;;;;30.20;24.08;;;;;;;10.32;79.37;100501.38;5057879;28;20082;-53
2022/04/23 04:08:13;;;;;;;31.20;24.52;;;;;;;10.35;79.26;100501.44;5054411;28;20131;-52
2022/04/23 04:10:39;;;;;;;28.65;24.02;;;;;;;10.30;79.61;100503.03;5056444;28;20119;-51
2022/04/23 04:13:04;;;;;;;28.73;23.50;;;;;;;10.32;79.34;100499.66;5056429;28;20039;-49
2022/04/23 04:15:29;;;;;;;30.70;23.90;;;;;;;10.32;79.64;100499.66;5053307;28;20103;-52
2022/04/23 04:17:55;;;;;;;30.30;24.85;;;;;;;10.32;79.88;100498.81;5058778;28;20111;-51
2022/04/23 04:20:21;;;;;;;30.23;24.05;;;;;;;10.30;79.81;100503.88;5056614;28;20137;-51
2022/04/23 04:22:47;;;;;;;31.98;25.42;;;;;;;10.29;79.87;100494.44;5058210;28;20040;-51
2022/04/23 04:25:13;;;;;;;29.73;24.17;;;;;;;10.29;79.77;100497.00;5058133;28;20365;-49
2022/04/23 04:27:39;;;;;;;33.47;24.90;;;;;;;10.26;79.82;100499.53;5056902;28;20063;-50
2022/04/23 04:30:09;;;;;;;31.20;24.83;;;;;;;10.21;80.38;100491.66;5054065;28;20029;-52
2022/04/23 04:32:35;;;;;;;33.55;25.13;;;;;;;10.20;80.42;100495.06;5058083;28;20469;-52
2022/04/23 04:35:01;;;;;;;31.63;24.10;;;;;;;10.18;80.58;100483.88;5056611;28;20066;-49
2022/04/23 04:37:27;;;;;;;32.20;23.75;;;;;;;10.18;80.41;100489.00;5055090;28;20037;-50
2022/04/23 04:39:53;;;;;;;31.60;24.67;;;;;;;10.21;80.60;100483.09;5060069;28;20082;-51
2022/04/23 04:42:18;;;;;;;29.90;24.63;;;;;;;10.25;80.17;100484.06;5058653;28;20032;-51
2022/04/23 04:44:44;;;;;;;32.03;24.95;;;;;;;10.27;80.15;100485.84;5056127;28;20047;-48
2022/04/23 04:47:09;;;;;;;27.10;23.02;;;;;;;10.29;79.85;100488.44;5053007;28;20500;-52
2022/04/23 04:49:36;;;;;;;28.77;23.10;;;;;;;10.28;80.18;100497.84;5057508;28;20020;-52
2022/04/23 04:52:02;;;;;;;32.38;24.30;;;;;;;10.30;79.99;100498.75;5056427;28;20047;-52
2022/04/23 04:54:27;;;;;;;31.55;23.70;;;;;;;10.30;79.92;100495.31;5053782;28;20036;-49
2022/04/23 04:56:53;;;;;;;31.77;24.02;;;;;;;10.31;80.01;100497.03;5053988;28;20097;-52
2022/04/23 04:59:22;;;;;;;29.38;23.52;;;;;;;10.31;79.96;100512.47;5053990;28;20400;-49
2022/04/23 05:01:48;;;;;;;27.48;23.70;;;;;;;10.24;80.44;100495.16;5057546;28;20040;-51
2022/04/23 05:04:14;;;;;;;28.45;24.08;;;;;;;10.20;80.61;100505.34;5055465;28;20043;-52
2022/04/23 05:06:39;;;;;;;29.52;24.08;;;;;;;10.22;80.86;100507.94;5053829;28;20392;-49
2022/04/23 05:09:04;;;;;;;30.08;23.67;;;;;;;10.26;80.57;100503.81;5057849;28;20029;-50
2022/04/23 05:11:30;;;;;;;29.63;23.50;;;;;;;10.30;80.33;100511.59;5052639;28;20031;-52
2022/04/23 05:13:56;;;;;;;30.25;23.15;;;;;;;10.32;80.63;100512.53;5056080;28;20557;-49
2022/04/23 05:16:21;;;;;;;30.55;23.73;;;;;;;10.35;80.08;100509.13;5057204;28;20028;-49
2022/04/23 05:18:47;;;;;;;31.00;24.27;;;;;;;10.38;80.24;100514.38;5057964;28;20055;-52
2022/04/23 05:21:12;;;;;;;29.95;23.98;;;;;;;10.43;79.79;100513.63;5054318;28;20119;-52
2022/04/23 05:23:37;;;;;;;28.40;24.65;;;;;;;10.43;79.97;100511.06;5054956;28;20532;-52
2022/04/23 05:26:04;;;;;;;28.83;24.15;;;;;;;10.46;79.82;100515.41;5055417;28;20033;-52
2022/04/23 05:28:30;;;;;;;29.58;24.45;;;;;;;10.48;79.74;100506.88;5051896;28;20040;-53
2022/04/23 05:30:55;;;;;;;28.88;23.38;;;;;;;10.54;79.51;100502.72;5051563;28;20566;-48
2022/04/23 05:33:21;;;;;;;30.30;24.35;;;;;;;10.57;79.39;100502.78;5057973;28;20032;-52
2022/04/23 05:35:46;;;;;;;29.35;23.10;;;;;;;10.61;79.46;100505.44;5054769;28;20032;-51
2022/04/23 05:38:12;;;;;;;29.33;24.92;;;;;;;10.60;79.17;100505.41;5055186;28;20129;-49
2022/04/23 05:40:37;;;;;;;28.85;23.88;;;;;;;10.62;79.40;100508.91;5051179;28;20704;-52
2022/04/23 05:43:02;;;;;;;28.13;24.77;;;;;;;10.61;79.37;100508.00;5057161;28;20033;-49
2022/04/23 05:45:29;;;;;;;29.52;23.45;;;;;;;10.62;79.43;100514.94;5053116;28;20032;-49
2022/04/23 05:47:55;;;;;;;29.27;24.52;;;;;;;10.65;79.05;100506.41;5057131;28;20086;-51
2022/04/23 05:50:22;;;;;;;29.52;24.35;;;;;;;10.68;79.30;100515.06;5052553;28;20037;-50
2022/04/23 05:52:47;;;;;;;29.67;24.50;;;;;;;10.74;78.82;100520.34;5057627;28;20038;-48
2022/04/23 05:55:13;;;;;;;29.85;24.38;;;;;;;10.80;78.42;100500.69;5050403;28;20025;-52
2022/04/23 05:57:39;;;;;;;33.38;25.80;;;;;;;10.87;78.51;100505.16;5057416;28;20032;-52
2022/04/23 06:00:06;;;;;;;29.25;24.65;;;;;;;10.90;78.09;100505.22;5053878;28;20059;-52
2022/04/23 06:02:32;;;;;;;28.10;23.05;;;;;;;10.98;78.25;100509.69;5059615;28;20024;-49
2022/04/23 06:04:58;;;;;;;27.83;23.48;;;;;;;11.05;77.67;100504.69;5055424;28;20028;-52
2022/04/23 06:07:23;;;;;;;28.23;23.02;;;;;;;11.14;77.02;100497.13;5056834;28;20504;-50
2022/04/23 06:09:49;;;;;;;29.13;23.42;;;;;;;11.22;76.81;100506.75;5059014;28;20032;-52
2022/04/23 06:12:14;;;;;;;30.10;24.17;;;;;;;11.31;76.60;100493.19;5051957;28;20123;-50
2022/04/23 06:14:39;;;;;;;29.33;24.67;;;;;;;11.33;76.18;100496.63;5057944;28;20044;-52
2022/04/23 06:17:10;;;;;;;29.02;23.05;;;;;;;11.36;76.13;100496.72;5054246;28;20064;-49
2022/04/23 06:19:37;;;;;;;28.23;23.70;;;;;;;11.44;75.76;100495.13;5055328;28;20044;-48
2022/04/23 06:22:03;;;;;;;28.15;23.80;;;;;;;11.48;75.52;100504.66;5053330;28;20048;-48
2022/04/23 06:24:28;;;;;;;26.92;22.90;;;;;;;11.52;75.38;100495.28;5058680;28;20183;-52
2022/04/23 06:26:53;;;;;;;29.20;23.90;;;;;;;11.61;75.17;100494.59;5052586;28;20115;-50
2022/04/23 06:29:19;;;;;;;25.80;22.75;;;;;;;11.69;74.95;100498.16;5053022;28;20033;-50
2022/04/23 06:31:44;;;;;;;27.42;22.25;;;;;;;11.83;73.88;100496.75;5053875;28;20074;-51
2022/04/23 06:34:10;;;;;;;26.33;22.58;;;;;;;11.92;73.76;100490.88;5056629;28;20554;-50
2022/04/23 06:36:36;;;;;;;29.27;22.88;;;;;;;12.05;73.31;100497.94;5056548;28;20507;-49
2022/04/23 06:39:02;;;;;;;26.40;22.42;;;;;;;12.19;72.53;100496.44;5056101;28;20424;-53
2022/04/23 06:41:28;;;;;;;27.02;22.25;;;;;;;12.30;71.60;100489.75;5053561;28;20063;-54
2022/04/23 06:43:53;;;;;;;29.10;21.90;;;;;;;12.43;71.33;100492.50;5057025;28;20573;-52
2022/04/23 06:46:19;;;;;;;26.23;22.80;;;;;;;12.51;70.69;100491.78;5056333;28;20040;-50
2022/04/23 06:48:44;;;;;;;26.90;21.55;;;;;;;12.58;70.31;100490.16;5056400;28;20040;-53
2022/04/23 06:51:09;;;;;;;25.83;22.15;;;;;;;12.61;70.19;100490.19;5051495;28;20025;-51
2022/04/23 06:53:36;;;;;;;25.30;21.67;;;;;;;12.69;69.94;100480.88;5051646;28;20052;-53
2022/04/23 06:56:03;;;;;;;26.38;21.63;;;;;;;12.84;69.15;100491.38;5055680;28;20077;-54
2022/04/23 06:58:28;;;;;;;23.75;21.02;;;;;;;12.91;68.58;100491.44;5052655;28;20032;-54
2022/04/23 07:00:54;;;;;;;28.58;21.90;;;;;;;13.07;68.91;100483.06;5038508;28;20043;-49
2022/04/23 07:03:20;;;;;;;25.77;21.92;;;;;;;13.22;67.91;100484.97;5069260;28;20032;-51
2022/04/23 07:05:46;;;;;;;24.08;21.50;;;;;;;13.25;67.39;100487.59;5053512;28;20035;-53
2022/04/23 07:08:12;;;;;;;27.48;22.00;;;;;;;13.39;67.19;100486.88;5054999;28;20041;-51
2022/04/23 07:10:37;;;;;;;23.45;20.25;;;;;;;13.50;66.60;100489.56;5056641;28;20111;-55
2022/04/23 07:13:04;;;;;;;23.70;20.73;;;;;;;13.62;65.94;100478.50;5056448;28;20054;-54
2022/04/23 07:15:29;;;;;;;25.00;21.67;;;;;;;13.66;65.70;100477.69;5057911;28;20067;-51
2022/04/23 07:17:55;;;;;;;25.35;21.08;;;;;;;13.80;65.40;100481.25;5059495;28;20074;-54
2022/04/23 07:20:20;;;;;;;25.55;20.83;;;;;;;13.83;64.40;100495.91;5056045;28;20032;-55
2022/04/23 07:25:40;;;;;;;23.17;20.27;;;;;;;13.89;64.37;100475.28;5058558;28;20110;-54
2022/04/23 07:28:06;;;;;;;22.83;19.90;;;;;;;14.03;63.90;100470.25;5058151;28;20032;-54
2022/04/23 07:30:33;;;;;;;25.48;21.58;;;;;;;14.13;63.33;100474.63;5075794;28;20048;-53
2022/04/23 07:32:58;;;;;;;24.75;20.88;;;;;;;14.17;63.04;100479.81;5056036;28;20053;-54
2022/04/23 07:38:23;;;;;;;28.50;20.55;;;;;;;14.29;62.84;100463.53;5059070;28;20087;-54
2022/04/23 07:40:49;;;;;;;24.60;20.25;;;;;;;14.33;62.91;100465.28;5056766;28;20029;-53
2022/04/23 07:43:16;;;;;;;23.80;20.67;;;;;;;14.44;62.41;100470.53;5059137;28;20373;-53
2022/04/23 07:45:43;;;;;;;24.98;19.45;;;;;;;14.52;62.51;100466.28;5055590;28;20032;-54
2022/04/23 07:48:10;;;;;;;22.60;19.33;;;;;;;14.54;61.22;100463.72;5061339;28;20492;-51
2022/04/23 07:50:37;;;;;;;22.52;19.05;;;;;;;14.63;60.92;100451.69;5057377;28;20028;-53
2022/04/23 07:53:03;;;;;;;25.77;19.83;;;;;;;14.74;60.52;100460.38;5058418;28;20059;-54
2022/04/23 07:55:32;;;;;;;23.38;19.10;;;;;;;14.76;59.33;100465.56;5058208;28;20032;-49
2022/04/23 07:58:04;;;;;;;22.98;19.02;;;;;;;14.86;59.45;100454.38;5059465;28;20041;-52
2022/04/23 08:00:29;;;;;;;26.17;19.48;;;;;;;14.94;59.13;100457.00;5056675;28;20539;-52
2022/04/23 08:02:56;;;;;;;22.40;19.15;;;;;;;14.92;58.38;100461.28;5056725;28;20132;-54
2022/04/23 08:05:21;;;;;;;26.40;18.70;;;;;;;14.94;58.78;100464.78;5054903;28;20029;-54
2022/04/23 08:07:47;;;;;;;23.33;18.63;;;;;;;15.08;58.94;100454.47;5057343;28;20042;-50
2022/04/23 08:10:13;;;;;;;20.95;18.08;;;;;;;15.22;59.25;100450.16;5056089;28;20773;-53
2022/04/23 08:12:38;;;;;;;24.25;19.13;;;;;;;15.20;57.90;100441.53;5055458;28;20066;-53
2022/04/23 08:15:05;;;;;;;26.48;20.13;;;;;;;15.16;57.86;100444.97;5055911;28;20090;-54
2022/04/23 08:17:31;;;;;;;24.00;20.08;;;;;;;15.15;57.52;100440.66;5062653;28;20020;-53
2022/04/23 08:19:57;;;;;;;22.95;19.67;;;;;;;15.26;57.93;100449.31;5054616;28;20115;-55
2022/04/23 08:22:23;;;;;;;23.30;19.58;;;;;;;15.23;57.25;100438.97;5058443;28;20484;-53
2022/04/23 08:24:49;;;;;;;23.05;19.45;;;;;;;15.34;57.39;100436.38;5060956;28;20028;-52
2022/04/23 08:27:14;;;;;;;28.45;20.10;;;;;;;15.29;57.17;100432.09;5052143;28;20051;-53
2022/04/23 08:32:31;;;;;;;23.63;21.10;;;;;;;15.37;56.95;100426.03;5035650;28;20057;-53
2022/04/23 08:34:56;;;;;;;26.98;20.13;;;;;;;15.46;56.71;100426.91;5052861;28;20393;-53
2022/04/23 08:37:22;;;;;;;23.05;19.88;;;;;;;15.52;56.50;100433.81;5057465;28;20051;-54
2022/04/23 08:39:48;;;;;;;27.33;20.83;;;;;;;15.55;56.32;100424.34;5055569;28;20121;-53
2022/04/23 08:42:16;;;;;;;23.98;19.33;;;;;;;15.62;56.23;100429.53;5058461;28;20068;-54
2022/04/23 08:44:42;;;;;;;21.60;19.10;;;;;;;15.47;55.48;100433.84;5055962;28;20021;-53
2022/04/23 08:47:10;;;;;;;22.05;19.67;;;;;;;15.34;55.91;100432.06;5057760;28;20040;-52
2022/04/23 08:49:39;;;;;;;22.35;19.75;;;;;;;15.44;56.22;100430.38;5060926;28;20024;-51
2022/04/23 08:52:26;;;;;;;24.13;19.90;;;;;;;15.56;56.75;100439.00;5060040;28;20042;-54
2022/04/23 08:54:53;;;;;;;24.30;19.55;;;;;;;15.68;56.23;100429.56;5060780;28;20123;-51
2022/04/23 08:57:19;;;;;;;22.15;18.95;;;;;;;15.79;55.90;100443.38;5063364;28;20035;-54
2022/04/23 08:59:51;;;;;;;25.52;20.33;;;;;;;15.77;54.88;100440.81;5059018;28;20032;-53
2022/04/23 09:02:17;;;;;;;24.98;20.00;;;;;;;15.93;54.83;100438.19;5060361;28;20499;-53
2022/04/23 09:04:42;;;;;;;23.80;20.13;;;;;;;16.04;54.16;100434.72;5063914;28;20025;-54
2022/04/23 09:07:19;;;;;;;22.48;19.02;;;;;;;16.14;54.37;100437.28;5063101;28;20040;-55
2022/04/23 09:09:49;;;;;;;24.00;18.58;;;;;;;16.29;54.06;100432.94;5058824;28;20017;-53
2022/04/23 09:12:15;;;;;;;22.40;19.90;;;;;;;16.34;53.84;100433.81;5061833;28;20098;-53
2022/04/23 09:14:40;;;;;;;22.98;19.70;;;;;;;16.44;53.20;100439.84;5062218;28;20024;-54
2022/04/23 09:25:42;;;;;;;26.50;20.45;;;;;;;16.59;53.11;100429.41;5056748;28;20043;-55
2022/04/23 09:28:20;;;;;;;25.00;21.38;;;;;;;16.60;53.09;100436.31;5057393;28;20495;-53
2022/04/23 09:30:47;;;;;;;24.17;21.67;;;;;;;16.67;53.21;100444.09;5056668;28;20743;-54
2022/04/23 09:33:13;;;;;;;25.48;21.50;;;;;;;16.69;52.63;100444.97;5057770;28;20470;-54
2022/04/23 09:36:04;;;;;;;23.13;20.67;;;;;;;16.80;53.21;100444.06;5056921;28;20128;-50
2022/04/23 09:38:30;;;;;;;27.58;21.38;;;;;;;16.87;52.28;100450.13;5060047;28;20439;-52
2022/04/23 09:41:16;;;;;;;25.10;22.40;;;;;;;16.92;52.10;100455.28;5060082;28;20124;-54
2022/04/23 09:43:42;;;;;;;25.08;21.98;;;;;;;16.99;51.92;100447.47;5057224;28;20055;-55
2022/04/23 09:46:09;;;;;;;25.00;21.85;;;;;;;17.09;52.45;100441.34;5055785;28;20048;-54
2022/04/23 09:48:39;;;;;;;26.45;21.75;;;;;;;17.11;51.48;100439.63;5058210;28;20028;-54
2022/04/23 09:51:25;;;;;;;24.63;22.02;;;;;;;17.16;51.49;100440.41;5059128;28;20039;-56
2022/04/23 09:53:55;;;;;;;24.27;21.75;;;;;;;17.36;51.74;100447.25;5056216;28;20087;-48
2022/04/23 09:56:26;;;;;;;25.92;23.17;;;;;;;17.39;51.00;100436.81;5057303;28;20033;-52
2022/04/23 09:58:53;;;;;;;26.35;22.45;;;;;;;17.45;50.38;100443.72;5054916;28;20040;-50
2022/04/23 10:01:20;;;;;;;24.85;22.17;;;;;;;17.44;50.41;100445.47;5056902;28;20047;-55
2022/04/23 10:03:49;;;;;;;26.00;23.17;;;;;;;17.38;50.58;100448.97;5058208;28;20496;-54
2022/04/23 10:06:18;;;;;;;24.25;21.75;;;;;;;17.41;50.45;100433.38;5055862;28;20527;-49
2022/04/23 10:08:47;;;;;;;25.83;22.00;;;;;;;17.30;50.56;100445.56;5059001;28;20028;-56
2022/04/23 10:11:16;;;;;;;;;;;;;;;17.38;50.33;100437.72;5058998;28;20476;-51
2022/04/23 10:13:46;;;;;;;25.30;22.55;;;;;;;17.16;50.66;100443.03;5064517;28;19916;-54
2022/04/23 10:16:13;;;;;;;25.48;22.40;;;;;;;17.11;50.96;100426.63;5054827;28;20116;-54
2022/04/23 10:18:39;;;;;;;29.65;23.17;;;;;;;17.12;50.59;100437.88;5052904;28;20151;-55
2022/04/23 10:21:09;;;;;;;28.00;23.02;;;;;;;17.07;50.82;100429.25;5053173;28;20051;-54
2022/04/23 10:23:43;;;;;;;27.02;23.65;;;;;;;17.01;51.20;100422.34;5053632;28;21926;-54
2022/04/23 10:26:23;;;;;;;27.80;23.42;;;;;;;17.07;51.07;100431.84;5058209;28;20025;-55
2022/04/23 10:28:50;;;;;;;27.98;23.42;;;;;;;17.17;50.49;100430.91;5054408;28;20024;-53
2022/04/23 10:31:17;;;;;;;25.85;21.58;;;;;;;17.34;50.25;100421.25;5053085;28;20087;-54
2022/04/23 10:33:52;;;;;;;25.75;22.67;;;;;;;17.50;49.90;100413.38;5051814;28;20028;-55
2022/04/23 10:36:19;;;;;;;25.60;22.52;;;;;;;17.53;49.70;100423.72;5055328;28;20059;-56
2022/04/23 10:38:51;;;;;;;28.80;22.48;;;;;;;17.51;49.25;100420.28;5055269;28;20098;-54
2022/04/23 10:41:21;;;;;;;25.05;22.13;;;;;;;17.60;49.49;100413.28;5053616;28;20077;-55
2022/04/23 10:43:52;;;;;;;28.55;23.00;;;;;;;17.86;49.65;100410.50;5060203;28;20048;-54
2022/04/23 10:46:36;;;;;;;27.50;22.75;;;;;;;18.12;49.16;100404.19;5061035;28;20021;-56
2022/04/23 10:49:17;;;;;;;29.77;23.70;;;;;;;18.31;48.15;100399.63;5061954;28;20064;-55
2022/04/23 10:51:49;;;;;;;27.30;23.58;;;;;;;18.54;47.61;100407.19;5060790;28;20085;-52
2022/04/23 10:54:16;;;;;;;24.33;21.55;;;;;;;18.75;47.13;100407.84;5058216;28;20056;-53
2022/04/23 10:56:43;;;;;;;31.85;23.20;;;;;;;18.83;46.65;100409.47;5056639;28;20039;-49
2022/04/23 10:59:39;;;;;;;27.98;23.65;;;;;;;18.93;46.33;100396.31;5054982;28;20545;-54
2022/04/23 11:02:13;;;;;;;31.38;24.58;;;;;;;18.75;46.66;100406.97;5058128;28;20442;-54
2022/04/23 11:13:31;;;;;;;27.85;22.58;;;;;;;18.90;45.84;100398.94;5058006;28;20128;-53
2022/04/23 11:16:05;;;;;;;25.35;22.75;;;;;;;19.09;45.17;100398.69;5058231;28;20046;-56
2022/04/23 11:18:32;;;;;;;26.08;21.38;;;;;;;19.25;45.11;100400.19;5056593;28;20082;-53
2022/04/23 11:21:05;;;;;;;25.15;22.00;;;;;;;19.45;44.83;100403.34;5061197;28;20550;-50
2022/04/23 11:23:32;;;;;;;27.00;22.05;;;;;;;19.59;43.76;100400.56;5059110;28;20025;-49
2022/04/23 11:25:57;;;;;;;25.52;21.83;;;;;;;19.85;43.76;100386.22;5061511;28;20040;-53
2022/04/23 11:28:23;;;;;;;25.85;22.17;;;;;;;20.03;43.38;100391.13;5056082;28;20053;-53
2022/04/23 11:30:50;;;;;;;24.65;21.50;;;;;;;20.15;43.11;100390.91;5052838;28;20061;-53
2022/04/23 11:33:16;;;;;;;26.27;23.48;;;;;;;20.13;42.82;100392.66;5057556;28;20029;-53
2022/04/23 11:35:42;;;;;;;27.48;23.58;;;;;;;19.98;42.69;100385.13;5059594;28;20035;-54